Time;durP1;ratioP1;P1;durP2;ratioP2;P2;SDS_P1;SDS_P2;PMS_P1;PMS_P2;Temp;Humidity;BMP_temperature;BMP_pressure;BME280_temperature;BME280_humidity;BME280_pressure;Samples;Min_cycle;Max_cycle;Signal;HPM_P1;HPM_P2
2024/04/03 00:01:53;;;;;;;8.80;6.43;;;10.40;99.90;;;;;;4883360;29;20616;-85
2024/04/03 00:04:18;;;;;;;12.30;6.57;;;10.50;99.90;;;;;;4883116;29;20818;-85
2024/04/03 00:06:45;;;;;;;15.90;6.67;;;10.50;99.90;;;;;;4884412;29;20291;-85
2024/04/03 00:09:12;;;;;;;11.07;6.57;;;10.50;99.90;;;;;;4881997;29;20314;-85
2024/04/03 00:11:38;;;;;;;12.60;6.57;;;10.50;99.90;;;;;;4882715;29;20200;-85
2024/04/03 00:14:06;;;;;;;9.70;6.30;;;10.50;99.90;;;;;;4882294;29;20731;-85
2024/04/03 00:16:32;;;;;;;18.93;6.60;;;10.50;99.90;;;;;;4882131;29;20260;-85
2024/04/03 00:18:58;;;;;;;13.60;7.13;;;10.50;99.90;;;;;;4883047;29;20231;-85
2024/04/03 00:21:25;;;;;;;10.87;6.50;;;10.50;99.90;;;;;;4884678;29;20616;-85
2024/04/03 00:23:52;;;;;;;9.70;6.30;;;10.50;99.90;;;;;;4885901;29;20277;-84
2024/04/03 00:26:19;;;;;;;13.37;6.90;;;10.50;99.90;;;;;;4886327;29;20207;-85
2024/04/03 00:28:45;;;;;;;11.60;6.03;;;10.50;99.90;;;;;;4886419;29;20311;-85
2024/04/03 00:31:13;;;;;;;9.20;6.50;;;10.50;99.90;;;;;;4887761;29;20231;-85
2024/04/03 00:33:39;;;;;;;13.50;6.43;;;10.50;99.90;;;;;;4886490;29;20623;-85
2024/04/03 00:36:06;;;;;;;13.13;6.37;;;10.50;99.90;;;;;;4886194;29;20242;-84
2024/04/03 00:38:32;;;;;;;10.73;6.33;;;10.50;99.90;;;;;;4884644;29;20311;-85
2024/04/03 00:41:00;;;;;;;8.37;5.97;;;10.50;99.90;;;;;;4885386;29;20220;-85
2024/04/03 00:43:27;;;;;;;12.13;6.73;;;10.50;99.90;;;;;;4884159;29;20235;-86
2024/04/03 00:45:55;;;;;;;11.83;6.73;;;10.50;99.90;;;;;;4885141;29;20240;-85
2024/04/03 00:48:22;;;;;;;10.93;5.97;;;10.50;99.90;;;;;;4883923;29;20271;-86
2024/04/03 00:50:51;;;;;;;15.93;6.10;;;10.50;99.90;;;;;;4884413;29;20235;-86
2024/04/03 00:53:18;;;;;;;12.43;6.17;;;10.50;99.90;;;;;;4883682;29;20264;-85
2024/04/03 00:55:45;;;;;;;15.07;6.93;;;10.50;99.90;;;;;;4883029;29;20295;-86
2024/04/03 00:58:11;;;;;;;12.07;6.73;;;10.40;99.90;;;;;;4893208;29;20669;-86
2024/04/03 01:00:38;;;;;;;15.60;6.97;;;10.40;99.90;;;;;;4902553;29;20298;-85
2024/04/03 01:03:05;;;;;;;10.27;6.97;;;10.50;99.90;;;;;;4901717;29;20298;-85
2024/04/03 01:05:33;;;;;;;15.23;7.60;;;10.50;99.90;;;;;;4899723;29;20213;-85
2024/04/03 01:07:59;;;;;;;13.27;7.80;;;10.50;99.90;;;;;;4901782;29;20290;-85
2024/04/03 01:10:27;;;;;;;13.93;7.37;;;10.50;99.90;;;;;;4902755;29;20333;-85
2024/04/03 01:12:54;;;;;;;11.30;7.13;;;10.50;99.90;;;;;;4903202;29;20294;-85
2024/04/03 01:15:21;;;;;;;11.33;6.90;;;10.50;99.90;;;;;;4902084;29;20202;-85
2024/04/03 01:17:47;;;;;;;15.37;7.60;;;10.50;99.90;;;;;;4901233;29;20314;-85
2024/04/03 01:20:14;;;;;;;11.83;7.57;;;10.50;99.90;;;;;;4902556;29;20704;-86
2024/04/03 01:22:41;;;;;;;11.27;7.90;;;10.50;99.90;;;;;;4903344;29;20211;-86
2024/04/03 01:25:09;;;;;;;12.73;7.60;;;10.50;99.90;;;;;;4867475;29;20219;-86
2024/04/03 01:27:35;;;;;;;13.93;7.03;;;10.50;99.90;;;;;;4867662;29;20295;-86
2024/04/03 01:30:02;;;;;;;12.40;8.03;;;10.50;99.90;;;;;;4867732;29;20252;-86
2024/04/03 01:32:28;;;;;;;16.97;7.80;;;10.50;99.90;;;;;;4866558;29;20211;-86
2024/04/03 01:34:55;;;;;;;12.17;7.37;;;10.40;99.90;;;;;;4866708;29;20287;-86
2024/04/03 01:37:21;;;;;;;13.13;7.57;;;10.40;99.90;;;;;;4867288;29;20315;-85
2024/04/03 01:39:48;;;;;;;15.67;7.83;;;10.50;99.90;;;;;;4862852;29;20247;-86
2024/04/03 01:42:16;;;;;;;14.90;7.60;;;10.50;99.90;;;;;;4880727;29;20298;-86
2024/04/03 01:44:43;;;;;;;9.40;7.00;;;10.50;99.90;;;;;;4876385;29;20216;-86
2024/04/03 01:47:09;;;;;;;16.97;7.27;;;10.50;99.90;;;;;;4897031;29;20293;-86
2024/04/03 01:49:36;;;;;;;13.60;6.93;;;10.60;99.90;;;;;;4890737;29;20311;-86
2024/04/03 01:52:02;;;;;;;15.50;7.83;;;10.50;99.90;;;;;;4894621;29;20208;-86
2024/04/03 01:54:29;;;;;;;18.90;7.70;;;10.50;99.90;;;;;;4880753;29;20305;-85
2024/04/03 01:56:54;;;;;;;14.10;7.80;;;10.50;99.90;;;;;;4888614;29;20306;-86
2024/04/03 01:59:23;;;;;;;14.27;7.37;;;10.50;99.90;;;;;;4878101;29;20318;-85
2024/04/03 02:01:49;;;;;;;12.47;8.03;;;10.50;99.90;;;;;;4878434;29;20268;-86
2024/04/03 02:04:15;;;;;;;16.40;7.80;;;10.50;99.90;;;;;;4880836;29;20306;-85
2024/04/03 02:06:41;;;;;;;13.50;7.93;;;10.50;99.90;;;;;;4881515;29;20208;-86
2024/04/03 02:09:08;;;;;;;12.73;7.63;;;10.40;99.90;;;;;;4880506;29;20306;-86
2024/04/03 02:11:34;;;;;;;11.13;8.00;;;10.40;99.90;;;;;;4891369;29;20258;-86
2024/04/03 02:14:01;;;;;;;15.17;7.80;;;10.40;99.90;;;;;;4885121;29;20294;-86
2024/04/03 02:16:30;;;;;;;14.80;8.03;;;10.40;99.90;;;;;;4878445;29;20819;-86
2024/04/03 02:18:57;;;;;;;16.00;8.40;;;10.40;99.90;;;;;;4878016;29;20239;-85
2024/04/03 02:21:23;;;;;;;15.63;8.33;;;10.40;99.90;;;;;;4878096;29;20212;-85
2024/04/03 02:23:50;;;;;;;12.70;7.53;;;10.40;99.90;;;;;;4877126;29;20668;-86
2024/04/03 02:26:15;;;;;;;14.07;7.17;;;10.40;99.90;;;;;;4877946;29;20218;-86
2024/04/03 02:28:42;;;;;;;12.57;7.87;;;10.40;99.90;;;;;;4889186;29;20759;-86
2024/04/03 02:31:08;;;;;;;19.23;7.87;;;10.30;99.90;;;;;;4885931;29;20303;-86
2024/04/03 02:33:37;;;;;;;10.23;6.47;;;10.30;99.90;;;;;;4882540;29;20310;-86
2024/04/03 02:36:09;;;;;;;15.57;7.60;;;10.30;99.90;;;;;;4877904;29;20314;-86
2024/04/03 02:38:35;;;;;;;17.77;7.53;;;10.30;99.90;;;;;;4877865;29;20718;-86
2024/04/03 02:41:01;;;;;;;12.93;7.43;;;10.40;99.90;;;;;;4877681;29;20204;-87
2024/04/03 02:43:28;;;;;;;12.67;7.83;;;10.30;99.90;;;;;;4876230;29;20443;-86
2024/04/03 02:45:54;;;;;;;13.03;6.80;;;10.30;99.90;;;;;;4877860;29;20303;-86
2024/04/03 02:48:21;;;;;;;13.03;6.80;;;10.30;99.90;;;;;;4877672;29;20196;-86
2024/04/03 02:50:49;;;;;;;18.67;7.50;;;10.20;99.90;;;;;;4875598;29;20243;-86
2024/04/03 02:53:16;;;;;;;11.50;6.27;;;10.20;99.90;;;;;;4877331;29;20797;-86
2024/04/03 02:55:42;;;;;;;15.23;7.57;;;10.20;99.90;;;;;;4883711;29;20682;-87
2024/04/03 02:58:09;;;;;;;13.47;6.60;;;10.20;99.90;;;;;;4885448;29;20314;-86
2024/04/03 03:00:35;;;;;;;15.50;6.97;;;10.20;99.90;;;;;;4887250;29;20232;-86
2024/04/03 03:03:02;;;;;;;16.80;7.70;;;10.30;99.90;;;;;;4877623;29;20753;-86
2024/04/03 03:05:32;;;;;;;10.20;6.13;;;10.20;99.90;;;;;;4886660;29;20207;-87
2024/04/03 03:08:01;;;;;;;15.57;6.50;;;10.20;99.90;;;;;;4878607;29;20204;-86
2024/04/03 03:10:28;;;;;;;11.93;6.70;;;10.20;99.90;;;;;;4877359;29;20320;-86
2024/04/03 03:12:58;;;;;;;13.07;6.30;;;10.20;99.90;;;;;;4879813;29;20656;-85
2024/04/03 03:15:24;;;;;;;15.37;7.27;;;10.20;99.90;;;;;;4877114;29;20280;-86
2024/04/03 03:17:51;;;;;;;10.90;5.77;;;10.20;99.90;;;;;;4896170;29;20223;-85
2024/04/03 03:20:17;;;;;;;14.80;6.63;;;10.20;99.90;;;;;;4880887;29;20228;-86
2024/04/03 03:22:44;;;;;;;10.07;6.20;;;10.20;99.90;;;;;;4887857;29;20298;-85
2024/04/03 03:25:11;;;;;;;14.17;5.80;;;10.20;99.90;;;;;;4881360;29;20580;-85
2024/04/03 03:27:38;;;;;;;12.03;5.60;;;10.20;99.90;;;;;;4880571;29;20204;-86
2024/04/03 03:30:05;;;;;;;12.27;6.43;;;10.20;99.90;;;;;;4880019;29;20314;-85
2024/04/03 03:32:32;;;;;;;11.67;6.00;;;10.10;99.90;;;;;;4888980;29;20208;-86
2024/04/03 03:34:58;;;;;;;10.43;5.90;;;10.20;99.90;;;;;;4888581;29;20298;-86
2024/04/03 03:37:25;;;;;;;10.77;6.43;;;10.10;99.90;;;;;;4898959;29;20298;-86
2024/04/03 03:39:52;;;;;;;12.63;5.97;;;10.10;99.90;;;;;;4884440;29;20236;-86
2024/04/03 03:42:20;;;;;;;12.83;5.97;;;10.20;99.90;;;;;;4876927;29;20304;-86
2024/04/03 03:44:47;;;;;;;13.40;6.10;;;10.20;99.90;;;;;;4871562;29;20235;-86
2024/04/03 03:47:13;;;;;;;12.53;5.80;;;10.20;99.90;;;;;;4889283;29;20216;-85
2024/04/03 03:52:40;;;;;;;13.20;5.87;;;10.20;99.90;;;;;;4794474;29;20671;-86
2024/04/03 03:55:07;;;;;;;17.80;6.90;;;10.20;99.90;;;;;;4794656;29;20297;-86
2024/04/03 03:57:35;;;;;;;10.67;5.47;;;10.10;99.90;;;;;;4838282;29;20294;-86
2024/04/03 04:00:05;;;;;;;13.37;6.43;;;10.20;99.90;;;;;;4879929;29;20238;-86
2024/04/03 04:02:31;;;;;;;11.97;6.10;;;10.10;99.90;;;;;;4879528;29;20204;-86
2024/04/03 04:04:58;;;;;;;13.07;5.80;;;10.10;99.90;;;;;;4887827;29;20303;-86
2024/04/03 04:07:25;;;;;;;13.90;5.93;;;10.10;99.90;;;;;;4898577;29;20208;-85
2024/04/03 04:09:52;;;;;;;12.13;6.30;;;10.10;99.90;;;;;;4891512;29;20219;-86
2024/04/03 04:12:19;;;;;;;9.70;6.07;;;10.10;99.90;;;;;;4898576;29;20250;-85
2024/04/03 04:14:50;;;;;;;13.70;6.47;;;10.10;99.90;;;;;;4898605;29;20210;-87
2024/04/03 04:17:17;;;;;;;11.00;6.03;;;10.10;99.90;;;;;;4881381;29;20711;-87
2024/04/03 04:19:44;;;;;;;13.30;5.90;;;10.10;99.90;;;;;;4884571;29;20238;-87
2024/04/03 04:22:11;;;;;;;9.00;5.30;;;10.20;99.90;;;;;;4881608;29;20212;-87
2024/04/03 04:24:39;;;;;;;12.27;6.23;;;10.20;99.90;;;;;;4890414;29;20240;-87
2024/04/03 04:27:07;;;;;;;12.53;6.20;;;10.10;99.90;;;;;;4879457;29;20303;-87
2024/04/03 04:29:36;;;;;;;14.43;5.93;;;10.10;99.90;;;;;;4875148;29;20283;-86
2024/04/03 04:32:04;;;;;;;11.60;5.60;;;10.10;99.90;;;;;;4881768;29;20204;-87
2024/04/03 04:34:31;;;;;;;12.93;6.50;;;10.10;99.90;;;;;;4879064;29;20236;-86
2024/04/03 04:36:57;;;;;;;14.17;6.10;;;10.10;99.90;;;;;;4879236;29;20212;-86
2024/04/03 04:39:24;;;;;;;11.13;6.20;;;10.10;99.90;;;;;;4885018;29;20318;-86
2024/04/03 04:41:50;;;;;;;11.40;5.40;;;10.10;99.90;;;;;;4881398;29;20211;-87
2024/04/03 04:44:17;;;;;;;11.40;5.40;;;10.10;99.90;;;;;;4875162;29;20568;-87
2024/04/03 04:46:47;;;;;;;14.37;5.73;;;10.10;99.90;;;;;;4874286;29;20642;-86
2024/04/03 04:49:15;;;;;;;13.30;5.60;;;10.10;99.90;;;;;;4879255;29;20695;-86
2024/04/03 04:51:41;;;;;;;15.80;5.77;;;10.10;99.90;;;;;;4879345;29;20220;-86
2024/04/03 04:54:08;;;;;;;11.97;5.67;;;10.00;99.90;;;;;;4879083;29;20306;-86
2024/04/03 04:56:34;;;;;;;10.40;5.30;;;10.00;99.90;;;;;;4886008;29;20239;-86
2024/04/03 04:59:02;;;;;;;13.80;5.63;;;10.00;99.90;;;;;;4878470;29;20270;-85
2024/04/03 05:01:28;;;;;;;9.43;5.97;;;10.00;99.90;;;;;;4889596;29;20221;-86
2024/04/03 05:03:54;;;;;;;17.63;5.87;;;9.90;99.90;;;;;;4873750;29;20291;-85
2024/04/03 05:06:22;;;;;;;11.80;5.00;;;9.90;99.90;;;;;;4881273;29;20655;-85
2024/04/03 05:08:49;;;;;;;14.50;5.40;;;9.90;99.90;;;;;;4897733;29;20564;-86
2024/04/03 05:11:14;;;;;;;14.20;5.43;;;9.90;99.90;;;;;;4887081;29;20292;-87
2024/04/03 05:13:41;;;;;;;14.17;5.57;;;9.90;99.90;;;;;;4878421;29;20299;-87
2024/04/03 05:16:08;;;;;;;16.03;5.80;;;10.00;99.90;;;;;;4894304;29;20210;-87
2024/04/03 05:18:35;;;;;;;12.47;5.67;;;10.00;99.90;;;;;;4894926;29;20312;-87
2024/04/03 05:21:02;;;;;;;13.43;5.63;;;9.90;99.90;;;;;;4881083;29;20292;-88
2024/04/03 05:23:30;;;;;;;14.20;5.70;;;9.90;99.90;;;;;;4889472;29;20218;-87
2024/04/03 05:25:57;;;;;;;12.17;5.50;;;9.90;99.90;;;;;;4897032;29;20211;-88
2024/04/03 05:28:25;;;;;;;10.87;5.90;;;10.00;99.90;;;;;;4894038;29;20247;-88
2024/04/03 05:30:51;;;;;;;13.07;5.60;;;10.00;99.90;;;;;;4878519;29;20215;-87
2024/04/03 05:33:18;;;;;;;12.83;5.07;;;10.00;99.90;;;;;;4883670;29;20208;-87
2024/04/03 05:35:53;;;;;;;10.03;5.00;;;10.00;99.90;;;;;;4877493;29;20196;-87
2024/04/03 05:38:20;;;;;;;11.57;5.27;;;10.00;99.90;;;;;;4878998;29;20318;-87
2024/04/03 05:40:47;;;;;;;10.77;5.23;;;10.00;99.90;;;;;;4878051;29;20214;-87
2024/04/03 05:43:14;;;;;;;9.90;5.40;;;10.00;99.90;;;;;;4879158;29;20672;-87
2024/04/03 05:45:40;;;;;;;11.17;5.77;;;10.10;99.90;;;;;;4897266;29;20210;-88
2024/04/03 05:48:08;;;;;;;9.10;5.53;;;10.00;99.90;;;;;;4896837;29;20203;-88
2024/04/03 05:50:34;;;;;;;12.13;6.07;;;10.10;99.90;;;;;;4896604;29;20235;-88
2024/04/03 05:53:01;;;;;;;14.33;5.60;;;10.10;99.90;;;;;;4897032;29;20576;-88
2024/04/03 05:55:28;;;;;;;11.57;5.20;;;10.00;99.90;;;;;;4915472;29;20208;-87
2024/04/03 05:57:56;;;;;;;11.95;6.20;;;10.00;99.90;;;;;;4911245;29;20568;-88
2024/04/03 06:00:23;;;;;;;11.33;5.80;;;10.10;99.90;;;;;;4915507;29;20770;-89
2024/04/03 06:02:49;;;;;;;14.47;5.53;;;10.00;99.90;;;;;;4915159;29;20289;-88
2024/04/03 06:05:16;;;;;;;12.27;5.47;;;10.00;99.90;;;;;;4913785;29;20302;-88
2024/04/03 06:07:45;;;;;;;14.20;6.03;;;9.90;99.90;;;;;;4896560;29;20276;-88
2024/04/03 06:10:12;;;;;;;11.87;5.50;;;9.90;99.90;;;;;;4897557;29;20310;-87
2024/04/03 06:12:39;;;;;;;11.60;5.80;;;10.00;99.90;;;;;;4895680;29;20214;-87
2024/04/03 06:15:07;;;;;;;10.67;5.80;;;9.90;99.90;;;;;;4895162;29;20626;-87
2024/04/03 06:17:34;;;;;;;12.17;5.97;;;10.00;99.90;;;;;;4896428;29;20238;-87
2024/04/03 06:20:00;;;;;;;12.43;5.87;;;9.90;99.90;;;;;;4896043;29;20306;-87
2024/04/03 06:22:27;;;;;;;10.97;6.10;;;9.90;99.90;;;;;;4898590;29;20286;-87
2024/04/03 06:24:52;;;;;;;11.67;6.17;;;10.00;99.90;;;;;;4907053;29;20312;-87
2024/04/03 06:27:19;;;;;;;11.00;6.30;;;10.00;99.90;;;;;;4896538;29;20732;-87
2024/04/03 06:29:48;;;;;;;12.57;6.20;;;10.00;99.90;;;;;;4896567;29;20302;-87
2024/04/03 06:32:15;;;;;;;10.50;6.27;;;10.10;99.90;;;;;;4895529;29;20211;-88
2024/04/03 06:34:42;;;;;;;18.93;7.57;;;10.10;99.90;;;;;;4901861;29;20214;-88
2024/04/03 06:37:08;;;;;;;11.73;6.40;;;10.20;99.90;;;;;;4913187;29;20298;-88
2024/04/03 06:39:34;;;;;;;12.47;6.43;;;10.10;99.90;;;;;;4902793;29;20674;-87
2024/04/03 06:42:01;;;;;;;12.63;6.83;;;10.20;99.90;;;;;;4896272;29;20660;-88
2024/04/03 06:44:27;;;;;;;13.20;6.40;;;10.20;99.90;;;;;;4896054;29;20208;-88
2024/04/03 06:47:00;;;;;;;10.33;6.07;;;10.20;99.90;;;;;;4898807;29;20218;-87
2024/04/03 06:49:29;;;;;;;14.43;6.33;;;10.30;99.90;;;;;;4900129;29;20315;-88
2024/04/03 06:51:56;;;;;;;12.57;6.30;;;10.30;99.90;;;;;;4900043;29;20313;-88
2024/04/03 06:54:22;;;;;;;19.43;8.33;;;10.40;99.90;;;;;;4899872;29;20202;-88
2024/04/03 06:56:49;;;;;;;11.47;6.73;;;10.40;99.90;;;;;;4899642;29;20298;-87
2024/04/03 06:59:15;;;;;;;13.40;7.43;;;10.40;99.90;;;;;;4899410;29;20235;-88
2024/04/03 07:01:42;;;;;;;15.33;8.30;;;10.40;99.90;;;;;;4899631;29;20207;-89
2024/04/03 07:04:08;;;;;;;12.37;7.57;;;10.40;99.90;;;;;;4899674;29;20192;-89
2024/04/03 07:06:36;;;;;;;17.73;8.03;;;10.40;99.90;;;;;;4899867;29;20263;-88
2024/04/03 07:09:04;;;;;;;16.37;6.97;;;10.40;99.90;;;;;;4900006;29;20735;-89
2024/04/03 07:11:31;;;;;;;13.97;7.30;;;10.40;99.90;;;;;;4899394;29;20243;-87
2024/04/03 07:13:57;;;;;;;12.97;7.93;;;10.40;99.90;;;;;;4899119;29;20218;-87
2024/04/03 07:16:24;;;;;;;13.20;7.53;;;10.30;99.90;;;;;;4899116;29;20204;-87
2024/04/03 07:18:53;;;;;;;12.50;7.73;;;10.30;99.90;;;;;;4899243;29;20231;-88
2024/04/03 07:21:20;;;;;;;14.97;8.00;;;10.30;99.90;;;;;;4899551;29;20209;-88
2024/04/03 07:23:48;;;;;;;14.40;8.90;;;10.30;99.90;;;;;;4898842;29;20290;-87
2024/04/03 07:26:16;;;;;;;17.23;8.80;;;10.40;99.90;;;;;;4898999;29;20302;-88
2024/04/03 07:28:42;;;;;;;15.53;8.70;;;10.40;99.90;;;;;;4898786;29;20282;-87
2024/04/03 07:31:09;;;;;;;18.20;9.03;;;10.40;99.90;;;;;;4898752;29;20195;-89
2024/04/03 07:33:35;;;;;;;21.63;9.17;;;10.40;99.90;;;;;;4902321;29;20726;-88
2024/04/03 07:36:02;;;;;;;16.33;8.80;;;10.40;99.90;;;;;;4918073;29;20290;-88
2024/04/03 07:40:55;;;;;;;16.47;9.23;;;10.40;99.90;;;;;;4916865;23;20238;-84
2024/04/03 07:43:21;;;;;;;15.37;8.80;;;10.40;99.90;;;;;;4898265;29;20386;-85
2024/04/03 07:45:48;;;;;;;16.63;8.63;;;10.40;99.90;;;;;;4906489;29;20238;-85
2024/04/03 07:48:14;;;;;;;14.30;8.67;;;10.40;99.90;;;;;;4898023;29;20204;-84
2024/04/03 07:50:41;;;;;;;15.50;8.87;;;10.40;99.90;;;;;;4885867;29;20323;-84
2024/04/03 07:53:07;;;;;;;11.93;7.67;;;10.50;99.90;;;;;;4882046;29;20299;-85
2024/04/03 07:58:38;;;;;;;13.97;8.60;;;10.60;99.90;;;;;;4878215;29;20483;-84
2024/04/03 08:01:04;;;;;;;12.07;7.87;;;10.60;99.90;;;;;;4883222;29;20208;-85
2024/04/03 08:03:30;;;;;;;13.00;8.77;;;10.60;99.90;;;;;;4879336;29;20200;-84
2024/04/03 08:05:56;;;;;;;14.10;9.13;;;10.60;99.90;;;;;;4886904;29;20271;-85
2024/04/03 08:08:25;;;;;;;16.30;9.63;;;10.70;99.90;;;;;;4883668;29;20867;-84
2024/04/03 08:10:51;;;;;;;17.37;10.87;;;10.70;99.90;;;;;;4885049;29;20258;-85
2024/04/03 08:13:20;;;;;;;16.10;10.03;;;10.70;99.90;;;;;;4886035;29;20250;-84
2024/04/03 08:15:47;;;;;;;16.30;11.40;;;10.70;99.90;;;;;;4880277;29;20295;-84
2024/04/03 08:18:14;;;;;;;18.73;11.37;;;10.70;99.90;;;;;;4884174;29;20284;-84
2024/04/03 08:20:40;;;;;;;18.23;11.47;;;10.70;99.90;;;;;;4887201;29;20259;-85
2024/04/03 08:23:07;;;;;;;20.97;12.83;;;10.70;99.90;;;;;;4883154;29;20235;-85
2024/04/03 08:25:36;;;;;;;20.77;13.17;;;10.80;99.90;;;;;;4894999;29;20307;-85
2024/04/03 08:28:03;;;;;;;20.17;13.40;;;10.80;99.90;;;;;;4882012;29;20208;-84
2024/04/03 08:30:33;;;;;;;20.17;12.63;;;10.80;99.90;;;;;;4877976;29;20315;-85
2024/04/03 08:33:02;;;;;;;18.73;11.77;;;10.90;99.90;;;;;;4889273;29;20219;-85
2024/04/03 08:35:27;;;;;;;19.60;11.40;;;10.90;99.90;;;;;;4893004;29;20633;-85
2024/04/03 08:37:54;;;;;;;11.63;9.50;;;10.90;99.90;;;;;;4885949;29;20211;-84
2024/04/03 08:40:22;;;;;;;16.63;9.07;;;10.90;99.90;;;;;;4888721;29;20230;-84
2024/04/03 08:42:51;;;;;;;14.93;9.13;;;10.90;99.90;;;;;;4890907;29;20278;-85
2024/04/03 08:45:21;;;;;;;14.67;8.57;;;10.90;99.90;;;;;;4887254;29;20207;-85
2024/04/03 08:47:48;;;;;;;16.30;9.30;;;10.90;99.90;;;;;;4885063;29;20716;-84
2024/04/03 08:50:15;;;;;;;13.93;9.40;;;10.90;99.90;;;;;;4880880;29;20311;-84
2024/04/03 08:52:43;;;;;;;14.43;10.13;;;10.90;99.90;;;;;;4885072;29;20216;-84
2024/04/03 08:55:14;;;;;;;15.63;9.37;;;11.00;99.90;;;;;;4885294;29;20204;-84
2024/04/03 08:57:41;;;;;;;14.60;8.93;;;11.00;99.90;;;;;;4875479;29;20215;-84
2024/04/03 09:00:08;;;;;;;18.40;10.40;;;11.00;99.90;;;;;;4880981;29;20620;-85
2024/04/03 09:02:35;;;;;;;15.53;11.67;;;11.00;99.90;;;;;;4884830;29;20639;-85
2024/04/03 09:05:01;;;;;;;20.07;11.83;;;11.00;99.90;;;;;;4879941;29;20220;-85
2024/04/03 09:07:29;;;;;;;16.20;11.43;;;11.00;99.90;;;;;;4881766;29;20619;-85
2024/04/03 09:09:55;;;;;;;17.03;12.07;;;11.00;99.90;;;;;;4883257;29;20383;-84
2024/04/03 09:12:25;;;;;;;16.97;11.13;;;11.00;99.90;;;;;;4887664;29;20307;-84
2024/04/03 09:15:05;;;;;;;16.30;10.63;;;11.00;99.90;;;;;;4882937;29;20328;-85
2024/04/03 09:17:32;;;;;;;14.80;10.43;;;11.00;99.90;;;;;;4886205;29;20586;-84
2024/04/03 09:19:58;;;;;;;16.20;10.67;;;11.00;99.90;;;;;;4879149;29;20757;-84
2024/04/03 09:22:27;;;;;;;15.27;9.90;;;11.00;99.90;;;;;;4877167;29;20285;-84
2024/04/03 09:24:55;;;;;;;15.03;9.93;;;10.90;99.90;;;;;;4883129;29;20206;-86
2024/04/03 09:27:22;;;;;;;15.10;10.37;;;11.00;99.90;;;;;;4878647;29;20207;-86
2024/04/03 09:29:53;;;;;;;15.63;9.43;;;11.00;99.90;;;;;;4885501;29;20247;-89
2024/04/03 09:32:20;;;;;;;16.80;11.40;;;11.00;99.90;;;;;;4892900;29;20235;-88
2024/04/03 09:34:47;;;;;;;14.33;10.13;;;11.00;99.90;;;;;;4888557;29;20232;-89
2024/04/03 09:37:14;;;;;;;16.03;11.13;;;10.90;99.90;;;;;;4888483;29;20210;-88
2024/04/03 09:39:40;;;;;;;15.53;11.07;;;11.00;99.90;;;;;;4884826;29;20226;-86
2024/04/03 09:42:13;;;;;;;16.53;11.13;;;11.00;99.90;;;;;;4879494;29;20231;-86
2024/04/03 09:44:40;;;;;;;15.27;10.37;;;11.00;99.90;;;;;;4876410;29;20219;-86
2024/04/03 09:47:14;;;;;;;15.00;11.00;;;11.10;99.90;;;;;;4875919;29;20200;-87
2024/04/03 09:49:47;;;;;;;14.20;9.87;;;11.10;99.90;;;;;;4881697;29;20301;-84
2024/04/03 09:52:14;;;;;;;14.93;10.77;;;11.10;99.90;;;;;;4878276;29;20555;-85
2024/04/03 09:54:41;;;;;;;15.70;10.33;;;11.10;99.90;;;;;;4888319;29;20707;-85
2024/04/03 09:57:10;;;;;;;14.70;10.40;;;11.10;99.90;;;;;;4884909;29;20258;-85
2024/04/03 09:59:36;;;;;;;13.20;9.17;;;11.10;99.90;;;;;;4878973;29;20656;-85
2024/04/03 10:02:03;;;;;;;13.60;9.50;;;11.10;99.90;;;;;;4885299;29;20595;-84
2024/04/03 10:04:34;;;;;;;13.43;9.63;;;11.20;99.90;;;;;;4884237;29;20199;-85
2024/04/03 10:07:02;;;;;;;11.60;8.87;;;11.20;99.90;;;;;;4882141;29;20712;-84
2024/04/03 10:09:28;;;;;;;13.20;8.53;;;11.20;99.90;;;;;;4886980;29;20250;-84
2024/04/03 10:11:58;;;;;;;11.10;8.50;;;11.20;99.90;;;;;;4880946;29;20196;-84
2024/04/03 10:14:29;;;;;;;11.97;8.53;;;11.20;99.90;;;;;;4885157;29;20200;-84
2024/04/03 10:16:56;;;;;;;14.83;8.37;;;11.30;99.90;;;;;;4886658;29;20551;-85
2024/04/03 10:19:24;;;;;;;10.27;7.87;;;11.30;99.90;;;;;;4880370;29;20238;-84
2024/04/03 10:21:51;;;;;;;10.73;8.13;;;11.30;99.90;;;;;;4883159;29;20203;-84
2024/04/03 10:24:17;;;;;;;9.17;7.53;;;11.30;99.90;;;;;;4891414;29;20642;-84
2024/04/03 10:26:45;;;;;;;8.80;7.60;;;11.30;99.90;;;;;;4881136;29;20719;-85
2024/04/03 10:29:11;;;;;;;9.57;7.03;;;11.40;99.90;;;;;;4884387;29;20314;-85
2024/04/03 10:31:39;;;;;;;10.00;7.97;;;11.50;99.90;;;;;;4880018;29;20338;-85
2024/04/03 10:34:05;;;;;;;8.43;6.87;;;11.60;99.90;;;;;;4887165;29;20649;-84
2024/04/03 10:36:32;;;;;;;9.40;7.43;;;11.60;99.90;;;;;;4889602;29;20570;-85
2024/04/03 10:38:58;;;;;;;11.20;6.97;;;11.70;99.90;;;;;;4882813;29;20321;-85
2024/04/03 10:41:25;;;;;;;7.73;6.43;;;11.70;99.90;;;;;;4886631;29;20295;-85
2024/04/03 10:43:51;;;;;;;8.83;7.07;;;11.80;99.90;;;;;;4896046;29;20290;-84
2024/04/03 10:46:24;;;;;;;8.87;7.30;;;11.80;99.90;;;;;;4883115;29;20263;-84
2024/04/03 10:48:55;;;;;;;7.97;6.50;;;11.80;99.90;;;;;;4885523;29;20301;-85
2024/04/03 10:51:22;;;;;;;9.97;7.17;;;11.80;99.90;;;;;;4890307;29;20199;-85
2024/04/03 10:53:48;;;;;;;7.87;6.50;;;11.80;99.90;;;;;;4884734;29;20286;-85
2024/04/03 10:56:16;;;;;;;8.47;6.50;;;11.90;99.90;;;;;;4896613;29;20260;-85
2024/04/03 10:58:44;;;;;;;8.13;6.30;;;11.90;99.90;;;;;;4892280;29;20308;-84
2024/04/03 11:01:11;;;;;;;7.73;5.77;;;11.80;99.90;;;;;;4894343;29;20227;-85
2024/04/03 11:03:38;;;;;;;8.00;5.57;;;11.90;99.90;;;;;;4880330;29;20208;-84
2024/04/03 11:06:07;;;;;;;7.03;6.33;;;11.90;99.90;;;;;;4884430;29;20223;-85
2024/04/03 11:08:33;;;;;;;7.53;6.20;;;12.00;99.90;;;;;;4890109;29;20299;-84
2024/04/03 11:11:04;;;;;;;7.40;6.20;;;12.00;99.90;;;;;;4887908;29;20192;-84
2024/04/03 11:13:31;;;;;;;7.97;6.50;;;12.10;99.90;;;;;;4884954;29;20207;-84
2024/04/03 11:15:58;;;;;;;7.93;6.83;;;12.20;99.90;;;;;;4887764;29;20234;-84
2024/04/03 11:18:24;;;;;;;6.93;6.23;;;12.30;99.90;;;;;;4885955;29;20203;-84
2024/04/03 11:20:51;;;;;;;8.57;7.13;;;12.30;99.90;;;;;;4874340;29;20775;-84
2024/04/03 11:23:19;;;;;;;8.93;6.03;;;12.30;99.90;;;;;;4883561;29;20636;-84
2024/04/03 11:25:46;;;;;;;6.53;5.83;;;12.30;99.90;;;;;;4887177;29;20291;-84
2024/04/03 11:28:13;;;;;;;7.40;5.47;;;12.30;99.90;;;;;;4883052;29;20274;-85
2024/04/03 11:30:40;;;;;;;6.53;5.83;;;12.40;99.90;;;;;;4883395;29;20228;-84
2024/04/03 11:33:07;;;;;;;7.77;5.70;;;12.30;99.90;;;;;;4889370;29;20196;-84
2024/04/03 11:35:33;;;;;;;5.93;5.33;;;12.30;99.90;;;;;;4886705;29;20207;-84
2024/04/03 11:38:01;;;;;;;6.03;5.43;;;12.20;99.90;;;;;;4886471;29;20287;-84
2024/04/03 11:40:28;;;;;;;6.27;4.97;;;12.10;99.90;;;;;;4886964;29;20240;-84
2024/04/03 11:42:55;;;;;;;5.97;5.37;;;12.00;99.90;;;;;;4889428;29;20263;-84
2024/04/03 11:45:20;;;;;;;5.80;5.20;;;12.00;99.90;;;;;;4884736;29;20299;-84
2024/04/03 11:47:47;;;;;;;6.70;5.27;;;12.00;99.90;;;;;;4889647;29;20301;-84
2024/04/03 11:50:13;;;;;;;5.73;4.97;;;11.90;99.90;;;;;;4884000;29;20291;-84
2024/04/03 11:52:40;;;;;;;6.60;5.20;;;12.00;99.90;;;;;;4885842;29;20295;-84
2024/04/03 11:55:06;;;;;;;6.37;5.07;;;12.00;99.90;;;;;;4881426;29;20208;-85
2024/04/03 11:57:35;;;;;;;5.70;5.10;;;12.10;99.90;;;;;;4887621;29;20211;-84
2024/04/03 12:00:01;;;;;;;8.03;5.50;;;12.20;99.90;;;;;;4883634;29;20232;-83
2024/04/03 12:02:27;;;;;;;7.37;5.73;;;12.30;99.90;;;;;;4882539;29;20201;-84
2024/04/03 12:04:53;;;;;;;7.33;5.57;;;12.30;99.90;;;;;;4880310;29;20286;-84
2024/04/03 12:07:20;;;;;;;7.30;5.90;;;12.40;99.90;;;;;;4891515;29;20711;-84
2024/04/03 12:09:46;;;;;;;7.10;5.90;;;12.40;99.90;;;;;;4879601;29;20224;-84
2024/04/03 12:12:13;;;;;;;8.93;5.53;;;12.50;99.90;;;;;;4884099;29;20204;-84
2024/04/03 12:14:43;;;;;;;7.83;5.20;;;12.60;99.90;;;;;;4881962;29;20219;-84
2024/04/03 12:17:10;;;;;;;9.07;5.63;;;12.70;99.90;;;;;;4879035;29;20223;-85
2024/04/03 12:19:44;;;;;;;9.13;5.53;;;12.80;99.90;;;;;;4876152;29;20231;-84
2024/04/03 12:22:12;;;;;;;6.13;4.80;;;12.80;99.90;;;;;;4876690;29;20811;-84
2024/04/03 12:24:38;;;;;;;5.67;4.77;;;12.80;99.90;;;;;;4882468;29;20264;-84
2024/04/03 12:27:05;;;;;;;6.10;4.53;;;12.80;99.90;;;;;;4882214;29;20820;-84
2024/04/03 12:29:31;;;;;;;6.70;4.43;;;12.80;99.90;;;;;;4886934;29;20224;-84
2024/04/03 12:32:01;;;;;;;5.17;4.53;;;12.90;99.90;;;;;;4879582;29;20728;-84
2024/04/03 12:34:26;;;;;;;6.07;4.53;;;12.90;99.90;;;;;;4877281;29;20236;-84
2024/04/03 12:36:53;;;;;;;6.27;4.40;;;12.90;99.90;;;;;;4887518;29;20199;-84
2024/04/03 12:39:19;;;;;;;6.60;4.90;;;12.90;99.90;;;;;;4875937;29;20846;-84
2024/04/03 12:41:46;;;;;;;5.90;4.70;;;12.90;99.90;;;;;;4876787;29;20299;-84
2024/04/03 12:44:12;;;;;;;4.63;4.23;;;12.90;99.90;;;;;;4879641;29;20744;-84
2024/04/03 12:46:39;;;;;;;5.03;4.53;;;12.90;99.90;;;;;;4879262;29;20291;-84